sensor_id;sensor_type;location;lat;lon;timestamp;pressure;altitude;pressure_sealevel;temperature;humidity
6413;BME280;3239;48.714;9.472;2023-02-15T00:01:56;99661.59;;;0.21;100.00
6413;BME280;3239;48.714;9.472;2023-02-15T00:04:24;99659.31;;;0.19;100.00
6413;BME280;3239;48.714;9.472;2023-02-15T00:07:10;99662.84;;;0.16;100.00
6413;BME280;3239;48.714;9.472;2023-02-15T00:09:36;99653.47;;;0.05;100.00
6413;BME280;3239;48.714;9.472;2023-02-15T00:12:02;99654.66;;;0.04;100.00
6413;BME280;3239;48.714;9.472;2023-02-15T00:14:28;99658.72;;;0.12;100.00
6413;BME280;3239;48.714;9.472;2023-02-15T00:16:54;99653.75;;;0.10;100.00
6413;BME280;3239;48.714;9.472;2023-02-15T00:19:21;99652.31;;;0.06;100.00
6413;BME280;3239;48.714;9.472;2023-02-15T00:21:48;99642.16;;;-0.06;100.00
6413;BME280;3239;48.714;9.472;2023-02-15T00:24:16;99647.34;;;0.04;100.00
6413;BME280;3239;48.714;9.472;2023-02-15T00:26:44;99649.00;;;-0.02;100.00
6413;BME280;3239;48.714;9.472;2023-02-15T00:29:12;99638.03;;;-0.11;100.00
6413;BME280;3239;48.714;9.472;2023-02-15T00:31:38;99651.00;;;-0.06;100.00
6413;BME280;3239;48.714;9.472;2023-02-15T00:36:38;99646.38;;;-0.05;100.00
6413;BME280;3239;48.714;9.472;2023-02-15T00:39:05;99651.69;;;-0.02;100.00
6413;BME280;3239;48.714;9.472;2023-02-15T00:41:32;99645.78;;;-0.13;100.00
6413;BME280;3239;48.714;9.472;2023-02-15T00:43:58;99633.91;;;-0.15;100.00
6413;BME280;3239;48.714;9.472;2023-02-15T00:46:23;99631.63;;;-0.17;100.00
6413;BME280;3239;48.714;9.472;2023-02-15T00:48:49;99641.38;;;-0.22;100.00
6413;BME280;3239;48.714;9.472;2023-02-15T00:51:15;99641.63;;;-0.17;100.00
6413;BME280;3239;48.714;9.472;2023-02-15T00:53:43;99641.00;;;-0.25;100.00
6413;BME280;3239;48.714;9.472;2023-02-15T00:56:10;99650.94;;;-0.22;100.00
6413;BME280;3239;48.714;9.472;2023-02-15T00:58:36;99641.38;;;-0.22;100.00
6413;BME280;3239;48.714;9.472;2023-02-15T01:01:12;99637.28;;;-0.31;100.00
6413;BME280;3239;48.714;9.472;2023-02-15T01:03:38;99632.59;;;-0.46;100.00
6413;BME280;3239;48.714;9.472;2023-02-15T01:06:05;99636.03;;;-0.46;100.00
6413;BME280;3239;48.714;9.472;2023-02-15T01:08:31;99638.19;;;-0.37;100.00
6413;BME280;3239;48.714;9.472;2023-02-15T01:10:57;99638.69;;;-0.42;100.00
6413;BME280;3239;48.714;9.472;2023-02-15T01:13:27;99637.38;;;-0.53;100.00
6413;BME280;3239;48.714;9.472;2023-02-15T01:15:54;99639.97;;;-0.50;100.00
6413;BME280;3239;48.714;9.472;2023-02-15T01:18:21;99629.56;;;-0.48;100.00
6413;BME280;3239;48.714;9.472;2023-02-15T01:20:47;99634.28;;;-0.52;100.00
6413;BME280;3239;48.714;9.472;2023-02-15T01:23:13;99628.41;;;-0.47;100.00
6413;BME280;3239;48.714;9.472;2023-02-15T01:25:39;99628.19;;;-0.56;100.00
6413;BME280;3239;48.714;9.472;2023-02-15T01:28:05;99625.97;;;-0.61;100.00
6413;BME280;3239;48.714;9.472;2023-02-15T01:30:31;99625.97;;;-0.61;100.00
6413;BME280;3239;48.714;9.472;2023-02-15T01:32:57;99625.19;;;-0.62;100.00
6413;BME280;3239;48.714;9.472;2023-02-15T01:35:23;99628.75;;;-0.64;100.00
6413;BME280;3239;48.714;9.472;2023-02-15T01:37:49;99632.66;;;-0.69;100.00
6413;BME280;3239;48.714;9.472;2023-02-15T01:40:17;99627.56;;;-0.63;100.00
6413;BME280;3239;48.714;9.472;2023-02-15T01:42:43;99622.31;;;-0.70;100.00
6413;BME280;3239;48.714;9.472;2023-02-15T01:45:31;99624.25;;;-0.71;100.00
6413;BME280;3239;48.714;9.472;2023-02-15T01:50:40;99621.97;;;-0.73;100.00
6413;BME280;3239;48.714;9.472;2023-02-15T01:53:26;99624.94;;;-0.67;100.00
6413;BME280;3239;48.714;9.472;2023-02-15T01:56:01;99631.19;;;-0.73;100.00
6413;BME280;3239;48.714;9.472;2023-02-15T01:58:29;99622.72;;;-0.72;100.00
6413;BME280;3239;48.714;9.472;2023-02-15T02:00:58;99623.44;;;-0.68;100.00
6413;BME280;3239;48.714;9.472;2023-02-15T02:06:24;99608.38;;;-0.65;100.00
6413;BME280;3239;48.714;9.472;2023-02-15T02:08:55;99607.13;;;-0.61;100.00
6413;BME280;3239;48.714;9.472;2023-02-15T02:11:21;99602.63;;;-0.68;100.00
6413;BME280;3239;48.714;9.472;2023-02-15T02:13:47;99611.59;;;-0.74;100.00
6413;BME280;3239;48.714;9.472;2023-02-15T02:26:03;99598.03;;;-0.86;100.00
6413;BME280;3239;48.714;9.472;2023-02-15T02:35:21;99600.72;;;-0.86;100.00
6413;BME280;3239;48.714;9.472;2023-02-15T02:37:55;99591.47;;;-0.85;100.00
6413;BME280;3239;48.714;9.472;2023-02-15T02:40:46;99586.09;;;-0.85;100.00
6413;BME280;3239;48.714;9.472;2023-02-15T02:43:38;99587.50;;;-1.00;100.00
6413;BME280;3239;48.714;9.472;2023-02-15T02:46:24;99589.81;;;-1.22;100.00
6413;BME280;3239;48.714;9.472;2023-02-15T02:48:52;99584.88;;;-1.23;100.00
6413;BME280;3239;48.714;9.472;2023-02-15T02:51:19;99589.13;;;-1.26;100.00
6413;BME280;3239;48.714;9.472;2023-02-15T02:53:54;99586.06;;;-1.28;100.00
6413;BME280;3239;48.714;9.472;2023-02-15T02:56:44;99592.97;;;-1.27;100.00
6413;BME280;3239;48.714;9.472;2023-02-15T02:59:23;99594.25;;;-1.35;100.00
6413;BME280;3239;48.714;9.472;2023-02-15T03:01:54;99585.09;;;-1.37;100.00
6413;BME280;3239;48.714;9.472;2023-02-15T03:04:27;99591.81;;;-1.26;100.00
6413;BME280;3239;48.714;9.472;2023-02-15T03:07:07;99601.94;;;-1.33;100.00
6413;BME280;3239;48.714;9.472;2023-02-15T03:09:42;99598.94;;;-1.39;100.00
6413;BME280;3239;48.714;9.472;2023-02-15T03:12:14;99599.34;;;-1.40;100.00
6413;BME280;3239;48.714;9.472;2023-02-15T03:14:45;99593.97;;;-1.40;100.00
6413;BME280;3239;48.714;9.472;2023-02-15T03:17:13;99593.22;;;-1.41;100.00
6413;BME280;3239;48.714;9.472;2023-02-15T03:19:40;99598.59;;;-1.41;100.00
6413;BME280;3239;48.714;9.472;2023-02-15T03:22:18;99600.69;;;-1.29;100.00
6413;BME280;3239;48.714;9.472;2023-02-15T03:28:00;99601.16;;;-1.34;100.00
6413;BME280;3239;48.714;9.472;2023-02-15T03:30:28;99605.78;;;-1.34;100.00
6413;BME280;3239;48.714;9.472;2023-02-15T03:32:57;99596.00;;;-1.48;100.00
6413;BME280;3239;48.714;9.472;2023-02-15T03:35:27;99601.81;;;-1.49;100.00
6413;BME280;3239;48.714;9.472;2023-02-15T03:38:01;99593.75;;;-1.49;100.00
6413;BME280;3239;48.714;9.472;2023-02-15T03:40:35;99605.25;;;-1.49;100.00
6413;BME280;3239;48.714;9.472;2023-02-15T03:43:54;99600.63;;;-1.48;100.00
6413;BME280;3239;48.714;9.472;2023-02-15T03:49:53;99586.34;;;-1.42;100.00
6413;BME280;3239;48.714;9.472;2023-02-15T03:52:21;99582.47;;;-1.41;100.00
6413;BME280;3239;48.714;9.472;2023-02-15T03:54:49;99592.72;;;-1.82;100.00
6413;BME280;3239;48.714;9.472;2023-02-15T03:57:26;99585.31;;;-1.74;100.00
6413;BME280;3239;48.714;9.472;2023-02-15T04:00:21;99584.84;;;-1.69;100.00
6413;BME280;3239;48.714;9.472;2023-02-15T04:05:43;99585.56;;;-1.65;100.00
6413;BME280;3239;48.714;9.472;2023-02-15T04:08:10;99588.59;;;-1.63;100.00
6413;BME280;3239;48.714;9.472;2023-02-15T04:10:36;99587.88;;;-1.67;100.00
6413;BME280;3239;48.714;9.472;2023-02-15T04:13:29;99586.81;;;-1.73;100.00
6413;BME280;3239;48.714;9.472;2023-02-15T04:15:55;99579.88;;;-1.71;100.00
6413;BME280;3239;48.714;9.472;2023-02-15T04:18:37;99588.78;;;-1.74;100.00
6413;BME280;3239;48.714;9.472;2023-02-15T04:21:25;99590.63;;;-1.71;100.00
6413;BME280;3239;48.714;9.472;2023-02-15T04:24:10;99591.03;;;-1.72;100.00
6413;BME280;3239;48.714;9.472;2023-02-15T04:26:55;99586.41;;;-1.72;100.00
6413;BME280;3239;48.714;9.472;2023-02-15T04:29:34;99584.06;;;-1.70;100.00
6413;BME280;3239;48.714;9.472;2023-02-15T04:32:01;99581.16;;;-1.79;100.00
6413;BME280;3239;48.714;9.472;2023-02-15T04:34:27;99580.00;;;-1.78;100.00
6413;BME280;3239;48.714;9.472;2023-02-15T04:36:53;99567.78;;;-1.82;100.00
6413;BME280;3239;48.714;9.472;2023-02-15T04:39:19;99573.09;;;-1.79;100.00
6413;BME280;3239;48.714;9.472;2023-02-15T04:41:46;99578.34;;;-1.95;100.00
6413;BME280;3239;48.714;9.472;2023-02-15T04:44:13;99580.56;;;-1.90;100.00
6413;BME280;3239;48.714;9.472;2023-02-15T04:46:39;99572.50;;;-1.90;100.00
6413;BME280;3239;48.714;9.472;2023-02-15T04:49:04;99580.91;;;-1.88;100.00
6413;BME280;3239;48.714;9.472;2023-02-15T04:51:30;99587.59;;;-1.99;100.00
6413;BME280;3239;48.714;9.472;2023-02-15T04:53:56;99585.94;;;-1.90;100.00
6413;BME280;3239;48.714;9.472;2023-02-15T04:56:25;99580.84;;;-1.84;100.00
6413;BME280;3239;48.714;9.472;2023-02-15T04:58:51;99585.63;;;-1.95;100.00
6413;BME280;3239;48.714;9.472;2023-02-15T05:01:17;99585.28;;;-1.97;100.00
6413;BME280;3239;48.714;9.472;2023-02-15T05:03:43;99574.94;;;-1.99;100.00
6413;BME280;3239;48.714;9.472;2023-02-15T05:06:09;99580.19;;;-1.92;100.00
6413;BME280;3239;48.714;9.472;2023-02-15T05:08:35;99577.47;;;-1.88;100.00
6413;BME280;3239;48.714;9.472;2023-02-15T05:11:00;99577.00;;;-1.83;100.00
6413;BME280;3239;48.714;9.472;2023-02-15T05:13:27;99574.31;;;-1.83;100.00
6413;BME280;3239;48.714;9.472;2023-02-15T05:15:55;99567.16;;;-1.90;100.00
6413;BME280;3239;48.714;9.472;2023-02-15T05:18:22;99571.44;;;-1.96;100.00
6413;BME280;3239;48.714;9.472;2023-02-15T05:20:51;99573.28;;;-2.19;100.00
6413;BME280;3239;48.714;9.472;2023-02-15T05:23:20;99579.38;;;-2.15;100.00
6413;BME280;3239;48.714;9.472;2023-02-15T05:25:50;99580.56;;;-2.16;100.00
6413;BME280;3239;48.714;9.472;2023-02-15T05:28:37;99575.53;;;-2.14;100.00
6413;BME280;3239;48.714;9.472;2023-02-15T05:34:05;99568.50;;;-2.05;100.00
6413;BME280;3239;48.714;9.472;2023-02-15T05:36:31;99560.59;;;-2.15;100.00
6413;BME280;3239;48.714;9.472;2023-02-15T05:38:56;99550.34;;;-2.24;100.00
6413;BME280;3239;48.714;9.472;2023-02-15T05:41:22;99554.97;;;-2.24;100.00
6413;BME280;3239;48.714;9.472;2023-02-15T05:43:48;99557.41;;;-2.33;100.00
6413;BME280;3239;48.714;9.472;2023-02-15T05:46:14;99565.66;;;-2.21;100.00
6413;BME280;3239;48.714;9.472;2023-02-15T05:48:39;99576.44;;;-2.24;100.00
6413;BME280;3239;48.714;9.472;2023-02-15T05:51:12;99582.19;;;-2.22;100.00
6413;BME280;3239;48.714;9.472;2023-02-15T05:53:39;99572.28;;;-2.29;100.00
6413;BME280;3239;48.714;9.472;2023-02-15T05:56:11;99576.84;;;-2.26;100.00
6413;BME280;3239;48.714;9.472;2023-02-15T05:58:39;99578.00;;;-2.27;100.00
6413;BME280;3239;48.714;9.472;2023-02-15T06:01:10;99593.91;;;-2.39;100.00
6413;BME280;3239;48.714;9.472;2023-02-15T06:03:36;99585.84;;;-2.39;100.00
6413;BME280;3239;48.714;9.472;2023-02-15T06:06:02;99581.09;;;-2.28;100.00
6413;BME280;3239;48.714;9.472;2023-02-15T06:08:33;99580.50;;;-2.39;100.00
6413;BME280;3239;48.714;9.472;2023-02-15T06:11:00;99595.38;;;-2.35;100.00
6413;BME280;3239;48.714;9.472;2023-02-15T06:13:25;99596.88;;;-2.34;100.00
6413;BME280;3239;48.714;9.472;2023-02-15T06:15:51;99589.22;;;-2.35;100.00
6413;BME280;3239;48.714;9.472;2023-02-15T06:18:17;99593.97;;;-2.46;100.00
6413;BME280;3239;48.714;9.472;2023-02-15T06:20:45;99595.59;;;-2.52;100.00
6413;BME280;3239;48.714;9.472;2023-02-15T06:23:12;99601.72;;;-2.52;100.00
6413;BME280;3239;48.714;9.472;2023-02-15T06:25:38;99604.25;;;-2.41;100.00
6413;BME280;3239;48.714;9.472;2023-02-15T06:28:04;99604.59;;;-2.36;100.00
6413;BME280;3239;48.714;9.472;2023-02-15T06:30:30;99606.88;;;-2.34;100.00
6413;BME280;3239;48.714;9.472;2023-02-15T06:32:55;99608.78;;;-2.35;100.00
6413;BME280;3239;48.714;9.472;2023-02-15T06:35:21;99604.25;;;-2.41;100.00
6413;BME280;3239;48.714;9.472;2023-02-15T06:37:48;99605.00;;;-2.37;100.00
6413;BME280;3239;48.714;9.472;2023-02-15T06:40:15;99619.63;;;-2.45;100.00
6413;BME280;3239;48.714;9.472;2023-02-15T06:42:44;99618.50;;;-2.44;100.00
6413;BME280;3239;48.714;9.472;2023-02-15T06:45:11;99625.81;;;-2.48;100.00
6413;BME280;3239;48.714;9.472;2023-02-15T06:47:37;99628.03;;;-2.40;100.00
6413;BME280;3239;48.714;9.472;2023-02-15T06:50:05;99623.44;;;-2.39;100.00
6413;BME280;3239;48.714;9.472;2023-02-15T06:52:31;99625.97;;;-2.29;100.00
6413;BME280;3239;48.714;9.472;2023-02-15T06:54:57;99615.19;;;-2.25;100.00
6413;BME280;3239;48.714;9.472;2023-02-15T06:57:23;99619.66;;;-2.15;100.00
6413;BME280;3239;48.714;9.472;2023-02-15T06:59:48;99617.25;;;-2.06;100.00
6413;BME280;3239;48.714;9.472;2023-02-15T07:02:15;99614.66;;;-1.87;100.00
6413;BME280;3239;48.714;9.472;2023-02-15T07:04:41;99616.72;;;-1.98;100.00
6413;BME280;3239;48.714;9.472;2023-02-15T07:07:11;99612.47;;;-1.95;100.00
6413;BME280;3239;48.714;9.472;2023-02-15T07:09:37;99617.88;;;-1.72;100.00
6413;BME280;3239;48.714;9.472;2023-02-15T07:12:04;99624.94;;;-1.55;100.00
6413;BME280;3239;48.714;9.472;2023-02-15T07:14:49;99629.09;;;-1.28;100.00
6413;BME280;3239;48.714;9.472;2023-02-15T07:17:15;99613.53;;;-1.17;100.00
6413;BME280;3239;48.714;9.472;2023-02-15T07:19:41;99615.84;;;-0.53;100.00
6413;BME280;3239;48.714;9.472;2023-02-15T07:22:07;99611.34;;;-0.60;100.00
6413;BME280;3239;48.714;9.472;2023-02-15T07:24:33;99595.50;;;-0.97;100.00
6413;BME280;3239;48.714;9.472;2023-02-15T07:26:59;99593.47;;;-0.31;100.00
6413;BME280;3239;48.714;9.472;2023-02-15T07:29:24;99589.00;;;-0.76;100.00
6413;BME280;3239;48.714;9.472;2023-02-15T07:31:50;99580.47;;;-0.56;100.00
6413;BME280;3239;48.714;9.472;2023-02-15T07:34:16;99570.94;;;-0.41;100.00
6413;BME280;3239;48.714;9.472;2023-02-15T07:36:42;99573.81;;;0.04;100.00
6413;BME280;3239;48.714;9.472;2023-02-15T07:39:11;99561.75;;;-0.43;100.00
6413;BME280;3239;48.714;9.472;2023-02-15T07:41:37;99551.75;;;-0.43;100.00
6413;BME280;3239;48.714;9.472;2023-02-15T07:44:03;99549.28;;;-0.33;100.00
6413;BME280;3239;48.714;9.472;2023-02-15T07:46:29;99544.25;;;-0.51;100.00
6413;BME280;3239;48.714;9.472;2023-02-15T07:48:55;99553.78;;;-0.66;100.00
6413;BME280;3239;48.714;9.472;2023-02-15T07:51:21;99553.19;;;-0.03;100.00
6413;BME280;3239;48.714;9.472;2023-02-15T07:53:47;99553.72;;;0.08;100.00
6413;BME280;3239;48.714;9.472;2023-02-15T07:56:14;99546.22;;;0.00;100.00
6413;BME280;3239;48.714;9.472;2023-02-15T07:58:40;99548.34;;;0.24;100.00
6413;BME280;3239;48.714;9.472;2023-02-15T08:01:40;99530.72;;;0.80;100.00
6413;BME280;3239;48.714;9.472;2023-02-15T08:04:07;99525.16;;;0.87;100.00
6413;BME280;3239;48.714;9.472;2023-02-15T08:06:35;99521.31;;;0.72;100.00
6413;BME280;3239;48.714;9.472;2023-02-15T08:09:04;99523.44;;;0.93;100.00
6413;BME280;3239;48.714;9.472;2023-02-15T08:11:34;99519.16;;;0.96;100.00
6413;BME280;3239;48.714;9.472;2023-02-15T08:14:12;99517.59;;;1.23;100.00
6413;BME280;3239;48.714;9.472;2023-02-15T08:16:58;99511.16;;;1.05;100.00
6413;BME280;3239;48.714;9.472;2023-02-15T08:19:30;99514.00;;;1.14;100.00
6413;BME280;3239;48.714;9.472;2023-02-15T08:22:06;99507.91;;;0.97;100.00
6413;BME280;3239;48.714;9.472;2023-02-15T08:24:35;99498.97;;;1.66;100.00
6413;BME280;3239;48.714;9.472;2023-02-15T08:27:10;99504.78;;;1.90;100.00
6413;BME280;3239;48.714;9.472;2023-02-15T08:29:37;99498.72;;;1.36;100.00
6413;BME280;3239;48.714;9.472;2023-02-15T08:32:07;99496.44;;;2.68;100.00
6413;BME280;3239;48.714;9.472;2023-02-15T08:34:40;99486.53;;;3.39;100.00
6413;BME280;3239;48.714;9.472;2023-02-15T08:37:06;99475.38;;;2.51;100.00
6413;BME280;3239;48.714;9.472;2023-02-15T08:39:32;99486.00;;;2.79;100.00
6413;BME280;3239;48.714;9.472;2023-02-15T08:41:58;99467.81;;;2.12;100.00
6413;BME280;3239;48.714;9.472;2023-02-15T08:44:24;99467.41;;;2.69;100.00
6413;BME280;3239;48.714;9.472;2023-02-15T08:46:50;99473.91;;;2.93;100.00
6413;BME280;3239;48.714;9.472;2023-02-15T08:49:19;99476.13;;;3.07;100.00
6413;BME280;3239;48.714;9.472;2023-02-15T08:51:47;99461.88;;;3.46;100.00
6413;BME280;3239;48.714;9.472;2023-02-15T08:54:16;99472.84;;;5.62;100.00
6413;BME280;3239;48.714;9.472;2023-02-15T08:56:43;99443.88;;;4.18;100.00
6413;BME280;3239;48.714;9.472;2023-02-15T08:59:17;99442.31;;;3.90;100.00
6413;BME280;3239;48.714;9.472;2023-02-15T09:01:44;99445.09;;;4.26;100.00
6413;BME280;3239;48.714;9.472;2023-02-15T09:04:10;99444.97;;;4.57;100.00
6413;BME280;3239;48.714;9.472;2023-02-15T09:06:39;99441.31;;;5.97;100.00
6413;BME280;3239;48.714;9.472;2023-02-15T09:09:06;99441.00;;;5.95;100.00
6413;BME280;3239;48.714;9.472;2023-02-15T09:11:42;99422.59;;;7.04;100.00
6413;BME280;3239;48.714;9.472;2023-02-15T09:14:18;99414.81;;;7.11;100.00
6413;BME280;3239;48.714;9.472;2023-02-15T09:16:47;99403.97;;;7.46;100.00
6413;BME280;3239;48.714;9.472;2023-02-15T09:19:16;99407.25;;;7.50;100.00
6413;BME280;3239;48.714;9.472;2023-02-15T09:21:43;99415.72;;;7.52;100.00
6413;BME280;3239;48.714;9.472;2023-02-15T09:24:12;99411.50;;;8.91;100.00
6413;BME280;3239;48.714;9.472;2023-02-15T09:26:41;99401.03;;;6.48;100.00
6413;BME280;3239;48.714;9.472;2023-02-15T09:29:09;99406.72;;;6.88;100.00
6413;BME280;3239;48.714;9.472;2023-02-15T09:31:46;99397.56;;;7.49;100.00
6413;BME280;3239;48.714;9.472;2023-02-15T09:34:14;99392.81;;;7.15;100.00
6413;BME280;3239;48.714;9.472;2023-02-15T09:36:41;99388.03;;;6.28;100.00
6413;BME280;3239;48.714;9.472;2023-02-15T09:39:12;99390.28;;;7.11;100.00
6413;BME280;3239;48.714;9.472;2023-02-15T09:51:06;99374.50;;;7.01;100.00
6413;BME280;3239;48.714;9.472;2023-02-15T09:56:53;99385.81;;;7.43;100.00
6413;BME280;3239;48.714;9.472;2023-02-15T10:02:37;99371.91;;;10.21;100.00
6413;BME280;3239;48.714;9.472;2023-02-15T10:11:43;99366.72;;;9.87;100.00
6413;BME280;3239;48.714;9.472;2023-02-15T10:28:57;99338.66;;;10.72;94.29
6413;BME280;3239;48.714;9.472;2023-02-15T10:34:40;99333.78;;;12.05;80.20
6413;BME280;3239;48.714;9.472;2023-02-15T10:38:08;99328.94;;;10.93;78.04
6413;BME280;3239;48.714;9.472;2023-02-15T10:44:20;99332.91;;;10.65;83.71
6413;BME280;3239;48.714;9.472;2023-02-15T10:47:35;99317.91;;;11.54;80.55
6413;BME280;3239;48.714;9.472;2023-02-15T10:50:24;99317.03;;;12.08;71.70
6413;BME280;3239;48.714;9.472;2023-02-15T11:01:34;99310.66;;;12.70;61.49
6413;BME280;3239;48.714;9.472;2023-02-15T11:07:47;99296.53;;;10.70;76.53
6413;BME280;3239;48.714;9.472;2023-02-15T11:10:54;99279.97;;;11.58;74.09
6413;BME280;3239;48.714;9.472;2023-02-15T11:13:24;99289.16;;;12.34;71.67
6413;BME280;3239;48.714;9.472;2023-02-15T11:15:57;99288.00;;;12.18;68.49
6413;BME280;3239;48.714;9.472;2023-02-15T11:21:10;99279.13;;;13.36;59.46
6413;BME280;3239;48.714;9.472;2023-02-15T11:23:43;99276.28;;;13.41;58.20
6413;BME280;3239;48.714;9.472;2023-02-15T11:26:28;99276.19;;;14.82;52.65
6413;BME280;3239;48.714;9.472;2023-02-15T11:29:07;99271.81;;;14.42;52.42
6413;BME280;3239;48.714;9.472;2023-02-15T11:31:53;99268.34;;;13.62;52.64
6413;BME280;3239;48.714;9.472;2023-02-15T11:34:37;99266.97;;;14.48;52.12
6413;BME280;3239;48.714;9.472;2023-02-15T11:37:18;99258.44;;;13.90;51.40
6413;BME280;3239;48.714;9.472;2023-02-15T11:39:45;99254.13;;;14.82;51.62
6413;BME280;3239;48.714;9.472;2023-02-15T11:42:20;99251.41;;;14.63;51.20
6413;BME280;3239;48.714;9.472;2023-02-15T11:47:38;99255.19;;;14.79;53.33
6413;BME280;3239;48.714;9.472;2023-02-15T11:50:05;99251.69;;;15.75;50.34
6413;BME280;3239;48.714;9.472;2023-02-15T11:52:31;99248.78;;;15.02;50.00
6413;BME280;3239;48.714;9.472;2023-02-15T11:54:57;99251.53;;;17.42;45.73
6413;BME280;3239;48.714;9.472;2023-02-15T11:57:31;99238.19;;;18.77;38.00
6413;BME280;3239;48.714;9.472;2023-02-15T12:00:13;99242.75;;;15.95;41.87
6413;BME280;3239;48.714;9.472;2023-02-15T12:02:44;99247.09;;;16.37;44.16
6413;BME280;3239;48.714;9.472;2023-02-15T12:05:18;99241.88;;;16.67;43.30
6413;BME280;3239;48.714;9.472;2023-02-15T12:07:57;99240.06;;;16.90;43.60
6413;BME280;3239;48.714;9.472;2023-02-15T12:11:02;99236.47;;;17.58;40.59
6413;BME280;3239;48.714;9.472;2023-02-15T12:13:29;99235.78;;;16.89;42.90
6413;BME280;3239;48.714;9.472;2023-02-15T12:15:58;99229.13;;;18.84;39.43
6413;BME280;3239;48.714;9.472;2023-02-15T12:21:07;99225.09;;;19.85;34.75
6413;BME280;3239;48.714;9.472;2023-02-15T12:23:39;99216.13;;;18.34;36.69
6413;BME280;3239;48.714;9.472;2023-02-15T12:26:06;99216.09;;;17.84;38.73
6413;BME280;3239;48.714;9.472;2023-02-15T12:28:42;99209.09;;;19.93;36.25
6413;BME280;3239;48.714;9.472;2023-02-15T12:31:32;99216.28;;;20.43;36.73
6413;BME280;3239;48.714;9.472;2023-02-15T12:34:17;99217.72;;;20.19;33.38
6413;BME280;3239;48.714;9.472;2023-02-15T12:36:50;99211.31;;;19.02;35.51
6413;BME280;3239;48.714;9.472;2023-02-15T12:39:29;99207.78;;;19.39;33.80
6413;BME280;3239;48.714;9.472;2023-02-15T12:44:33;99210.56;;;19.39;34.39
6413;BME280;3239;48.714;9.472;2023-02-15T12:49:35;99199.56;;;22.28;29.44
6413;BME280;3239;48.714;9.472;2023-02-15T12:52:24;99200.50;;;20.94;31.56
6413;BME280;3239;48.714;9.472;2023-02-15T12:54:51;99193.50;;;20.61;30.67
6413;BME280;3239;48.714;9.472;2023-02-15T12:57:33;99187.72;;;20.10;31.22
6413;BME280;3239;48.714;9.472;2023-02-15T13:00:04;99186.19;;;21.15;30.64
6413;BME280;3239;48.714;9.472;2023-02-15T13:02:42;99174.59;;;23.11;28.75
6413;BME280;3239;48.714;9.472;2023-02-15T13:05:53;99175.75;;;23.08;27.40
6413;BME280;3239;48.714;9.472;2023-02-15T13:08:30;99175.09;;;22.72;27.19
6413;BME280;3239;48.714;9.472;2023-02-15T13:11:03;99171.16;;;21.95;28.15
6413;BME280;3239;48.714;9.472;2023-02-15T13:13:34;99174.69;;;21.96;28.14
6413;BME280;3239;48.714;9.472;2023-02-15T13:16:14;99170.97;;;23.28;27.00
6413;BME280;3239;48.714;9.472;2023-02-15T13:18:45;99171.41;;;19.60;30.02
6413;BME280;3239;48.714;9.472;2023-02-15T13:21:25;99164.78;;;21.17;29.47
6413;BME280;3239;48.714;9.472;2023-02-15T13:24:29;99156.81;;;20.23;29.51
6413;BME280;3239;48.714;9.472;2023-02-15T13:26:59;99148.09;;;23.12;27.11
6413;BME280;3239;48.714;9.472;2023-02-15T13:29:37;99140.97;;;24.25;25.25
6413;BME280;3239;48.714;9.472;2023-02-15T13:32:35;99140.22;;;22.37;26.86
6413;BME280;3239;48.714;9.472;2023-02-15T13:35:05;99145.66;;;22.08;29.17
6413;BME280;3239;48.714;9.472;2023-02-15T13:38:03;99132.34;;;23.93;26.78
6413;BME280;3239;48.714;9.472;2023-02-15T13:40:58;99127.47;;;25.25;25.32
6413;BME280;3239;48.714;9.472;2023-02-15T13:44:09;99132.72;;;21.60;29.19
6413;BME280;3239;48.714;9.472;2023-02-15T13:47:03;99133.94;;;21.66;29.38
6413;BME280;3239;48.714;9.472;2023-02-15T13:52:51;99136.25;;;22.04;28.34
6413;BME280;3239;48.714;9.472;2023-02-15T13:56:12;99121.03;;;24.31;26.80
6413;BME280;3239;48.714;9.472;2023-02-15T14:05:06;99116.03;;;23.61;26.06
6413;BME280;3239;48.714;9.472;2023-02-15T14:08:01;99114.69;;;23.05;27.07
6413;BME280;3239;48.714;9.472;2023-02-15T14:10:46;99108.81;;;25.08;25.76
6413;BME280;3239;48.714;9.472;2023-02-15T14:16:39;99106.31;;;23.62;27.00
6413;BME280;3239;48.714;9.472;2023-02-15T14:19:29;99105.31;;;25.73;24.45
6413;BME280;3239;48.714;9.472;2023-02-15T14:24:46;99107.84;;;25.69;23.83
6413;BME280;3239;48.714;9.472;2023-02-15T14:30:18;99104.41;;;25.26;25.79
6413;BME280;3239;48.714;9.472;2023-02-15T14:32:51;99103.22;;;26.75;24.00
6413;BME280;3239;48.714;9.472;2023-02-15T14:35:23;99099.84;;;24.18;25.29
6413;BME280;3239;48.714;9.472;2023-02-15T14:41:12;99102.88;;;24.01;25.39
6413;BME280;3239;48.714;9.472;2023-02-15T14:44:12;99108.00;;;25.82;23.81
6413;BME280;3239;48.714;9.472;2023-02-15T14:46:58;99100.69;;;29.52;20.54
6413;BME280;3239;48.714;9.472;2023-02-15T14:49:32;99097.22;;;28.03;20.53
6413;BME280;3239;48.714;9.472;2023-02-15T14:52:11;99098.69;;;27.29;21.88
6413;BME280;3239;48.714;9.472;2023-02-15T15:05:36;99097.03;;;28.13;21.50
6413;BME280;3239;48.714;9.472;2023-02-15T15:08:26;99099.06;;;26.30;22.68
6413;BME280;3239;48.714;9.472;2023-02-15T15:10:53;99090.00;;;26.08;22.58
6413;BME280;3239;48.714;9.472;2023-02-15T15:16:51;99092.16;;;28.27;20.70
6413;BME280;3239;48.714;9.472;2023-02-15T15:22:18;99092.38;;;27.17;21.93
6413;BME280;3239;48.714;9.472;2023-02-15T15:27:48;99090.91;;;23.23;24.95
6413;BME280;3239;48.714;9.472;2023-02-15T15:41:43;99081.59;;;28.14;20.82
6413;BME280;3239;48.714;9.472;2023-02-15T15:50:20;99080.66;;;28.36;20.21
6413;BME280;3239;48.714;9.472;2023-02-15T15:52:54;99082.34;;;28.28;20.00
6413;BME280;3239;48.714;9.472;2023-02-15T15:55:24;99086.69;;;28.04;20.40
6413;BME280;3239;48.714;9.472;2023-02-15T15:58:00;99090.22;;;27.41;20.82
6413;BME280;3239;48.714;9.472;2023-02-15T16:00:43;99089.44;;;26.56;21.63
6413;BME280;3239;48.714;9.472;2023-02-15T16:03:26;99085.03;;;24.37;24.03
6413;BME280;3239;48.714;9.472;2023-02-15T16:05:53;99083.25;;;22.49;26.09
6413;BME280;3239;48.714;9.472;2023-02-15T16:08:38;99091.53;;;20.66;28.39
6413;BME280;3239;48.714;9.472;2023-02-15T16:11:18;99097.28;;;18.93;30.99
6413;BME280;3239;48.714;9.472;2023-02-15T16:13:45;99091.94;;;17.97;33.12
6413;BME280;3239;48.714;9.472;2023-02-15T16:16:13;99087.97;;;17.70;34.02
6413;BME280;3239;48.714;9.472;2023-02-15T16:18:46;99091.69;;;16.94;36.30
6413;BME280;3239;48.714;9.472;2023-02-15T16:21:28;99095.03;;;16.24;38.11
6413;BME280;3239;48.714;9.472;2023-02-15T16:30:19;99098.19;;;14.36;47.70
6413;BME280;3239;48.714;9.472;2023-02-15T16:32:45;99095.25;;;13.84;50.81
6413;BME280;3239;48.714;9.472;2023-02-15T16:35:20;99091.03;;;13.46;54.73
6413;BME280;3239;48.714;9.472;2023-02-15T16:37:46;99097.03;;;13.08;60.69
6413;BME280;3239;48.714;9.472;2023-02-15T16:42:54;99113.63;;;12.49;68.67